sensor_id;sensor_type;location;lat;lon;timestamp;P1;durP1;ratioP1;P2;durP2;ratioP2
83690;SDS011;73671;43.220;0.064;2024-01-30T00:02:08;58.88;;;34.47;;
83690;SDS011;73671;43.220;0.064;2024-01-30T00:04:33;53.78;;;32.35;;
83690;SDS011;73671;43.220;0.064;2024-01-30T00:06:59;47.63;;;25.88;;
83690;SDS011;73671;43.220;0.064;2024-01-30T00:09:24;40.28;;;24.45;;
83690;SDS011;73671;43.220;0.064;2024-01-30T00:11:49;36.20;;;22.42;;
83690;SDS011;73671;43.220;0.064;2024-01-30T00:14:15;48.40;;;27.45;;
83690;SDS011;73671;43.220;0.064;2024-01-30T00:16:40;42.75;;;26.63;;
83690;SDS011;73671;43.220;0.064;2024-01-30T00:19:05;44.38;;;26.80;;
83690;SDS011;73671;43.220;0.064;2024-01-30T00:21:33;43.30;;;26.73;;
83690;SDS011;73671;43.220;0.064;2024-01-30T00:23:59;42.00;;;26.40;;
83690;SDS011;73671;43.220;0.064;2024-01-30T00:26:24;48.10;;;26.75;;
83690;SDS011;73671;43.220;0.064;2024-01-30T00:28:49;50.08;;;27.95;;
83690;SDS011;73671;43.220;0.064;2024-01-30T00:31:15;45.10;;;25.80;;
83690;SDS011;73671;43.220;0.064;2024-01-30T00:33:40;44.30;;;26.45;;
83690;SDS011;73671;43.220;0.064;2024-01-30T00:36:07;42.95;;;26.10;;
83690;SDS011;73671;43.220;0.064;2024-01-30T00:38:33;44.38;;;26.13;;
83690;SDS011;73671;43.220;0.064;2024-01-30T00:40:58;49.33;;;29.65;;
83690;SDS011;73671;43.220;0.064;2024-01-30T00:43:24;46.97;;;28.42;;
83690;SDS011;73671;43.220;0.064;2024-01-30T00:45:50;49.78;;;29.00;;
83690;SDS011;73671;43.220;0.064;2024-01-30T00:48:17;41.40;;;26.70;;
83690;SDS011;73671;43.220;0.064;2024-01-30T00:50:43;44.75;;;27.80;;
83690;SDS011;73671;43.220;0.064;2024-01-30T00:53:08;43.40;;;26.80;;
83690;SDS011;73671;43.220;0.064;2024-01-30T00:55:34;45.75;;;27.65;;
83690;SDS011;73671;43.220;0.064;2024-01-30T00:58:00;46.60;;;26.60;;
83690;SDS011;73671;43.220;0.064;2024-01-30T01:00:25;47.58;;;28.67;;
83690;SDS011;73671;43.220;0.064;2024-01-30T01:02:54;45.47;;;26.98;;
83690;SDS011;73671;43.220;0.064;2024-01-30T01:05:23;49.55;;;29.02;;
83690;SDS011;73671;43.220;0.064;2024-01-30T01:07:48;46.03;;;26.60;;
83690;SDS011;73671;43.220;0.064;2024-01-30T01:10:14;42.97;;;27.42;;
83690;SDS011;73671;43.220;0.064;2024-01-30T01:12:41;42.95;;;26.08;;
83690;SDS011;73671;43.220;0.064;2024-01-30T01:15:06;46.55;;;26.23;;
83690;SDS011;73671;43.220;0.064;2024-01-30T01:17:34;41.72;;;24.42;;
83690;SDS011;73671;43.220;0.064;2024-01-30T01:20:00;36.67;;;23.30;;
83690;SDS011;73671;43.220;0.064;2024-01-30T01:22:25;40.10;;;23.08;;
83690;SDS011;73671;43.220;0.064;2024-01-30T01:24:51;35.45;;;22.10;;
83690;SDS011;73671;43.220;0.064;2024-01-30T01:27:16;35.67;;;22.52;;
83690;SDS011;73671;43.220;0.064;2024-01-30T01:29:42;40.50;;;22.85;;
83690;SDS011;73671;43.220;0.064;2024-01-30T01:32:08;38.40;;;22.95;;
83690;SDS011;73671;43.220;0.064;2024-01-30T01:34:33;36.85;;;23.60;;
83690;SDS011;73671;43.220;0.064;2024-01-30T01:36:59;38.83;;;22.60;;
83690;SDS011;73671;43.220;0.064;2024-01-30T01:39:25;35.53;;;22.15;;
83690;SDS011;73671;43.220;0.064;2024-01-30T01:41:50;36.45;;;22.63;;
83690;SDS011;73671;43.220;0.064;2024-01-30T01:44:15;40.72;;;22.55;;
83690;SDS011;73671;43.220;0.064;2024-01-30T01:46:42;37.08;;;22.05;;
83690;SDS011;73671;43.220;0.064;2024-01-30T01:49:08;39.22;;;23.48;;
83690;SDS011;73671;43.220;0.064;2024-01-30T01:51:34;37.33;;;23.58;;
83690;SDS011;73671;43.220;0.064;2024-01-30T01:54:02;40.35;;;23.63;;
83690;SDS011;73671;43.220;0.064;2024-01-30T01:56:30;35.67;;;22.67;;
83690;SDS011;73671;43.220;0.064;2024-01-30T01:58:59;36.95;;;22.08;;
83690;SDS011;73671;43.220;0.064;2024-01-30T02:01:29;44.13;;;23.38;;
83690;SDS011;73671;43.220;0.064;2024-01-30T02:03:57;38.28;;;23.90;;
83690;SDS011;73671;43.220;0.064;2024-01-30T02:06:23;40.85;;;24.60;;
83690;SDS011;73671;43.220;0.064;2024-01-30T02:08:49;39.28;;;24.23;;
83690;SDS011;73671;43.220;0.064;2024-01-30T02:11:14;38.90;;;24.35;;
83690;SDS011;73671;43.220;0.064;2024-01-30T02:13:41;39.78;;;25.08;;
83690;SDS011;73671;43.220;0.064;2024-01-30T02:16:07;39.78;;;23.95;;
83690;SDS011;73671;43.220;0.064;2024-01-30T02:18:32;42.92;;;24.80;;
83690;SDS011;73671;43.220;0.064;2024-01-30T02:20:58;39.92;;;24.67;;
83690;SDS011;73671;43.220;0.064;2024-01-30T02:23:26;36.63;;;24.10;;
83690;SDS011;73671;43.220;0.064;2024-01-30T02:25:52;40.55;;;24.67;;
83690;SDS011;73671;43.220;0.064;2024-01-30T02:28:18;38.92;;;22.55;;
83690;SDS011;73671;43.220;0.064;2024-01-30T02:30:44;40.45;;;22.15;;
83690;SDS011;73671;43.220;0.064;2024-01-30T02:33:10;37.60;;;21.70;;
83690;SDS011;73671;43.220;0.064;2024-01-30T02:35:35;35.47;;;21.83;;
83690;SDS011;73671;43.220;0.064;2024-01-30T02:38:01;36.85;;;23.05;;
83690;SDS011;73671;43.220;0.064;2024-01-30T02:40:26;42.92;;;24.15;;
83690;SDS011;73671;43.220;0.064;2024-01-30T02:42:51;39.90;;;22.85;;
83690;SDS011;73671;43.220;0.064;2024-01-30T02:45:17;34.22;;;21.85;;
83690;SDS011;73671;43.220;0.064;2024-01-30T02:47:42;37.58;;;21.70;;
83690;SDS011;73671;43.220;0.064;2024-01-30T02:50:08;35.83;;;21.45;;
83690;SDS011;73671;43.220;0.064;2024-01-30T02:52:34;36.08;;;21.13;;
83690;SDS011;73671;43.220;0.064;2024-01-30T02:54:59;39.38;;;21.27;;
83690;SDS011;73671;43.220;0.064;2024-01-30T02:57:25;36.20;;;21.10;;
83690;SDS011;73671;43.220;0.064;2024-01-30T02:59:50;37.97;;;21.55;;
83690;SDS011;73671;43.220;0.064;2024-01-30T03:02:16;35.83;;;20.23;;
83690;SDS011;73671;43.220;0.064;2024-01-30T03:04:41;35.80;;;20.42;;
83690;SDS011;73671;43.220;0.064;2024-01-30T03:07:07;42.13;;;21.13;;
83690;SDS011;73671;43.220;0.064;2024-01-30T03:09:33;37.47;;;20.95;;
83690;SDS011;73671;43.220;0.064;2024-01-30T03:11:58;39.17;;;21.45;;
83690;SDS011;73671;43.220;0.064;2024-01-30T03:14:24;35.50;;;20.92;;
83690;SDS011;73671;43.220;0.064;2024-01-30T03:16:49;35.08;;;19.95;;
83690;SDS011;73671;43.220;0.064;2024-01-30T03:19:14;39.05;;;19.70;;
83690;SDS011;73671;43.220;0.064;2024-01-30T03:21:40;37.63;;;19.52;;
83690;SDS011;73671;43.220;0.064;2024-01-30T03:24:05;31.40;;;19.60;;
83690;SDS011;73671;43.220;0.064;2024-01-30T03:26:30;31.42;;;18.90;;
83690;SDS011;73671;43.220;0.064;2024-01-30T03:28:56;35.50;;;18.27;;
83690;SDS011;73671;43.220;0.064;2024-01-30T03:31:21;32.30;;;18.17;;
83690;SDS011;73671;43.220;0.064;2024-01-30T03:33:47;35.60;;;19.27;;
83690;SDS011;73671;43.220;0.064;2024-01-30T03:36:12;30.80;;;18.20;;
83690;SDS011;73671;43.220;0.064;2024-01-30T03:38:38;37.22;;;19.15;;
83690;SDS011;73671;43.220;0.064;2024-01-30T03:41:03;31.40;;;18.48;;
83690;SDS011;73671;43.220;0.064;2024-01-30T03:43:32;30.52;;;19.55;;
83690;SDS011;73671;43.220;0.064;2024-01-30T03:45:58;32.53;;;18.70;;
83690;SDS011;73671;43.220;0.064;2024-01-30T03:48:24;34.78;;;18.90;;
83690;SDS011;73671;43.220;0.064;2024-01-30T03:50:50;34.13;;;19.73;;
83690;SDS011;73671;43.220;0.064;2024-01-30T03:53:16;29.23;;;19.33;;
83690;SDS011;73671;43.220;0.064;2024-01-30T03:55:42;32.70;;;19.15;;
83690;SDS011;73671;43.220;0.064;2024-01-30T03:58:07;29.85;;;19.48;;
83690;SDS011;73671;43.220;0.064;2024-01-30T04:00:33;31.65;;;19.70;;
83690;SDS011;73671;43.220;0.064;2024-01-30T04:02:58;34.78;;;19.38;;
83690;SDS011;73671;43.220;0.064;2024-01-30T04:05:23;32.83;;;18.65;;
83690;SDS011;73671;43.220;0.064;2024-01-30T04:07:49;35.75;;;20.08;;
83690;SDS011;73671;43.220;0.064;2024-01-30T04:10:14;32.20;;;18.90;;
83690;SDS011;73671;43.220;0.064;2024-01-30T04:12:39;31.55;;;19.35;;
83690;SDS011;73671;43.220;0.064;2024-01-30T04:15:05;33.10;;;18.35;;
83690;SDS011;73671;43.220;0.064;2024-01-30T04:17:30;34.17;;;18.63;;
83690;SDS011;73671;43.220;0.064;2024-01-30T04:19:56;28.98;;;17.67;;
83690;SDS011;73671;43.220;0.064;2024-01-30T04:22:21;30.88;;;19.38;;
83690;SDS011;73671;43.220;0.064;2024-01-30T04:24:46;33.65;;;20.05;;
83690;SDS011;73671;43.220;0.064;2024-01-30T04:27:12;27.17;;;18.88;;
83690;SDS011;73671;43.220;0.064;2024-01-30T04:29:37;34.13;;;19.38;;
83690;SDS011;73671;43.220;0.064;2024-01-30T04:32:03;32.65;;;18.73;;
83690;SDS011;73671;43.220;0.064;2024-01-30T04:34:28;31.17;;;18.75;;
83690;SDS011;73671;43.220;0.064;2024-01-30T04:36:53;34.25;;;20.13;;
83690;SDS011;73671;43.220;0.064;2024-01-30T04:39:19;31.77;;;18.75;;
83690;SDS011;73671;43.220;0.064;2024-01-30T04:41:44;24.35;;;15.95;;
83690;SDS011;73671;43.220;0.064;2024-01-30T04:44:10;26.92;;;15.77;;
83690;SDS011;73671;43.220;0.064;2024-01-30T04:46:35;26.15;;;15.27;;
83690;SDS011;73671;43.220;0.064;2024-01-30T04:49:00;24.20;;;14.90;;
83690;SDS011;73671;43.220;0.064;2024-01-30T04:51:26;23.75;;;14.77;;
83690;SDS011;73671;43.220;0.064;2024-01-30T04:53:51;21.60;;;14.75;;
83690;SDS011;73671;43.220;0.064;2024-01-30T04:56:16;24.60;;;14.20;;
83690;SDS011;73671;43.220;0.064;2024-01-30T04:58:42;22.05;;;13.50;;
83690;SDS011;73671;43.220;0.064;2024-01-30T05:01:07;21.60;;;14.27;;
83690;SDS011;73671;43.220;0.064;2024-01-30T05:03:33;22.40;;;13.75;;
83690;SDS011;73671;43.220;0.064;2024-01-30T05:05:59;22.55;;;15.02;;
83690;SDS011;73671;43.220;0.064;2024-01-30T05:08:24;23.80;;;14.73;;
83690;SDS011;73671;43.220;0.064;2024-01-30T05:10:50;23.42;;;14.85;;
83690;SDS011;73671;43.220;0.064;2024-01-30T05:13:15;23.83;;;14.60;;
83690;SDS011;73671;43.220;0.064;2024-01-30T05:15:41;24.38;;;14.85;;
83690;SDS011;73671;43.220;0.064;2024-01-30T05:18:06;19.17;;;13.07;;
83690;SDS011;73671;43.220;0.064;2024-01-30T05:20:31;19.77;;;13.35;;
83690;SDS011;73671;43.220;0.064;2024-01-30T05:22:57;22.20;;;12.93;;
83690;SDS011;73671;43.220;0.064;2024-01-30T05:25:22;20.63;;;12.88;;
83690;SDS011;73671;43.220;0.064;2024-01-30T05:27:48;21.05;;;13.02;;
83690;SDS011;73671;43.220;0.064;2024-01-30T05:30:14;21.20;;;12.73;;
83690;SDS011;73671;43.220;0.064;2024-01-30T05:32:40;19.92;;;12.90;;
83690;SDS011;73671;43.220;0.064;2024-01-30T05:35:05;19.23;;;12.75;;
83690;SDS011;73671;43.220;0.064;2024-01-30T05:37:32;18.45;;;12.75;;
83690;SDS011;73671;43.220;0.064;2024-01-30T05:39:58;20.33;;;13.15;;
83690;SDS011;73671;43.220;0.064;2024-01-30T05:42:23;22.05;;;12.95;;
83690;SDS011;73671;43.220;0.064;2024-01-30T05:44:49;23.90;;;14.07;;
83690;SDS011;73671;43.220;0.064;2024-01-30T05:47:15;21.45;;;13.93;;
83690;SDS011;73671;43.220;0.064;2024-01-30T05:49:40;22.02;;;14.60;;
83690;SDS011;73671;43.220;0.064;2024-01-30T05:52:06;24.42;;;14.73;;
83690;SDS011;73671;43.220;0.064;2024-01-30T05:54:31;23.80;;;15.20;;
83690;SDS011;73671;43.220;0.064;2024-01-30T05:56:57;26.10;;;14.48;;
83690;SDS011;73671;43.220;0.064;2024-01-30T05:59:22;22.00;;;15.18;;
83690;SDS011;73671;43.220;0.064;2024-01-30T06:01:48;25.15;;;16.02;;
83690;SDS011;73671;43.220;0.064;2024-01-30T06:04:13;28.48;;;15.80;;
83690;SDS011;73671;43.220;0.064;2024-01-30T06:06:39;32.50;;;17.25;;
83690;SDS011;73671;43.220;0.064;2024-01-30T06:09:05;28.25;;;17.73;;
83690;SDS011;73671;43.220;0.064;2024-01-30T06:11:30;27.80;;;16.15;;
83690;SDS011;73671;43.220;0.064;2024-01-30T06:13:56;26.52;;;17.10;;
83690;SDS011;73671;43.220;0.064;2024-01-30T06:16:21;28.30;;;16.83;;
83690;SDS011;73671;43.220;0.064;2024-01-30T06:18:47;24.67;;;17.13;;
83690;SDS011;73671;43.220;0.064;2024-01-30T06:21:13;24.98;;;16.08;;
83690;SDS011;73671;43.220;0.064;2024-01-30T06:23:39;27.73;;;16.75;;
83690;SDS011;73671;43.220;0.064;2024-01-30T06:26:04;31.50;;;17.73;;
83690;SDS011;73671;43.220;0.064;2024-01-30T06:28:31;28.10;;;16.80;;
83690;SDS011;73671;43.220;0.064;2024-01-30T06:30:57;33.05;;;16.58;;
83690;SDS011;73671;43.220;0.064;2024-01-30T06:33:22;29.45;;;17.67;;
83690;SDS011;73671;43.220;0.064;2024-01-30T06:35:47;26.38;;;16.02;;
83690;SDS011;73671;43.220;0.064;2024-01-30T06:38:13;25.15;;;16.00;;
83690;SDS011;73671;43.220;0.064;2024-01-30T06:40:40;25.70;;;16.38;;
83690;SDS011;73671;43.220;0.064;2024-01-30T06:43:06;26.67;;;15.60;;
83690;SDS011;73671;43.220;0.064;2024-01-30T06:45:32;25.50;;;15.40;;
83690;SDS011;73671;43.220;0.064;2024-01-30T06:47:59;27.35;;;15.88;;
83690;SDS011;73671;43.220;0.064;2024-01-30T06:50:24;30.42;;;15.48;;
83690;SDS011;73671;43.220;0.064;2024-01-30T06:52:50;25.35;;;13.13;;
83690;SDS011;73671;43.220;0.064;2024-01-30T06:55:15;25.30;;;15.07;;
83690;SDS011;73671;43.220;0.064;2024-01-30T06:57:41;30.48;;;16.55;;
83690;SDS011;73671;43.220;0.064;2024-01-30T07:00:06;28.98;;;17.10;;
83690;SDS011;73671;43.220;0.064;2024-01-30T07:02:32;29.88;;;17.50;;
83690;SDS011;73671;43.220;0.064;2024-01-30T07:04:58;32.40;;;17.00;;
83690;SDS011;73671;43.220;0.064;2024-01-30T07:07:23;28.05;;;16.98;;
83690;SDS011;73671;43.220;0.064;2024-01-30T07:09:49;28.33;;;17.10;;
83690;SDS011;73671;43.220;0.064;2024-01-30T07:12:17;27.13;;;16.92;;
83690;SDS011;73671;43.220;0.064;2024-01-30T07:14:43;32.88;;;17.20;;
83690;SDS011;73671;43.220;0.064;2024-01-30T07:17:08;31.10;;;17.52;;
83690;SDS011;73671;43.220;0.064;2024-01-30T07:19:34;24.98;;;15.95;;
83690;SDS011;73671;43.220;0.064;2024-01-30T07:22:00;27.45;;;16.38;;
83690;SDS011;73671;43.220;0.064;2024-01-30T07:24:25;20.10;;;12.95;;
83690;SDS011;73671;43.220;0.064;2024-01-30T07:26:51;19.45;;;10.60;;
83690;SDS011;73671;43.220;0.064;2024-01-30T07:29:16;16.80;;;9.63;;
83690;SDS011;73671;43.220;0.064;2024-01-30T07:31:42;25.73;;;11.05;;
83690;SDS011;73671;43.220;0.064;2024-01-30T07:34:07;20.30;;;11.02;;
83690;SDS011;73671;43.220;0.064;2024-01-30T07:36:32;24.13;;;10.57;;
83690;SDS011;73671;43.220;0.064;2024-01-30T07:38:58;19.98;;;11.10;;
83690;SDS011;73671;43.220;0.064;2024-01-30T07:41:23;17.70;;;11.00;;
83690;SDS011;73671;43.220;0.064;2024-01-30T07:43:50;19.17;;;10.52;;
83690;SDS011;73671;43.220;0.064;2024-01-30T07:46:15;23.15;;;14.95;;
83690;SDS011;73671;43.220;0.064;2024-01-30T07:48:40;28.42;;;16.85;;
83690;SDS011;73671;43.220;0.064;2024-01-30T07:51:06;24.02;;;14.25;;
83690;SDS011;73671;43.220;0.064;2024-01-30T07:53:31;25.90;;;15.15;;
83690;SDS011;73671;43.220;0.064;2024-01-30T07:55:57;25.20;;;13.38;;
83690;SDS011;73671;43.220;0.064;2024-01-30T07:58:22;23.80;;;13.90;;
83690;SDS011;73671;43.220;0.064;2024-01-30T08:00:48;24.33;;;12.70;;
83690;SDS011;73671;43.220;0.064;2024-01-30T08:03:14;17.73;;;12.15;;
83690;SDS011;73671;43.220;0.064;2024-01-30T08:05:41;24.67;;;14.63;;
83690;SDS011;73671;43.220;0.064;2024-01-30T08:08:07;22.45;;;12.07;;
83690;SDS011;73671;43.220;0.064;2024-01-30T08:10:32;24.45;;;12.18;;
83690;SDS011;73671;43.220;0.064;2024-01-30T08:12:57;20.88;;;12.82;;
83690;SDS011;73671;43.220;0.064;2024-01-30T08:15:23;25.35;;;13.07;;
83690;SDS011;73671;43.220;0.064;2024-01-30T08:17:48;24.42;;;12.65;;
83690;SDS011;73671;43.220;0.064;2024-01-30T08:20:14;27.85;;;11.48;;
83690;SDS011;73671;43.220;0.064;2024-01-30T08:22:39;26.55;;;11.65;;
83690;SDS011;73671;43.220;0.064;2024-01-30T08:25:07;25.83;;;11.20;;
83690;SDS011;73671;43.220;0.064;2024-01-30T08:27:34;19.77;;;10.70;;
83690;SDS011;73671;43.220;0.064;2024-01-30T08:30:01;21.63;;;10.98;;
83690;SDS011;73671;43.220;0.064;2024-01-30T08:32:27;20.17;;;11.15;;
83690;SDS011;73671;43.220;0.064;2024-01-30T08:34:52;24.05;;;11.38;;
83690;SDS011;73671;43.220;0.064;2024-01-30T08:37:17;25.23;;;11.82;;
83690;SDS011;73671;43.220;0.064;2024-01-30T08:39:43;22.23;;;12.38;;
83690;SDS011;73671;43.220;0.064;2024-01-30T08:42:09;21.65;;;12.23;;
83690;SDS011;73671;43.220;0.064;2024-01-30T08:44:35;24.30;;;12.77;;
83690;SDS011;73671;43.220;0.064;2024-01-30T08:47:00;22.55;;;11.82;;
83690;SDS011;73671;43.220;0.064;2024-01-30T08:49:26;21.77;;;11.93;;
83690;SDS011;73671;43.220;0.064;2024-01-30T08:51:51;22.52;;;12.32;;
83690;SDS011;73671;43.220;0.064;2024-01-30T08:54:17;19.17;;;11.40;;
83690;SDS011;73671;43.220;0.064;2024-01-30T08:56:42;23.40;;;11.05;;
83690;SDS011;73671;43.220;0.064;2024-01-30T08:59:08;17.50;;;11.07;;
83690;SDS011;73671;43.220;0.064;2024-01-30T09:01:33;23.10;;;11.68;;
83690;SDS011;73671;43.220;0.064;2024-01-30T09:03:59;19.00;;;11.13;;
83690;SDS011;73671;43.220;0.064;2024-01-30T09:06:24;19.90;;;11.23;;
83690;SDS011;73671;43.220;0.064;2024-01-30T09:08:51;23.23;;;12.27;;
83690;SDS011;73671;43.220;0.064;2024-01-30T09:11:17;20.30;;;11.38;;
83690;SDS011;73671;43.220;0.064;2024-01-30T09:13:42;24.08;;;11.95;;
83690;SDS011;73671;43.220;0.064;2024-01-30T09:16:08;23.17;;;10.25;;
83690;SDS011;73671;43.220;0.064;2024-01-30T09:18:34;17.35;;;11.13;;
83690;SDS011;73671;43.220;0.064;2024-01-30T09:20:59;19.98;;;10.02;;
83690;SDS011;73671;43.220;0.064;2024-01-30T09:23:24;20.20;;;9.52;;
83690;SDS011;73671;43.220;0.064;2024-01-30T09:25:52;18.20;;;9.63;;
83690;SDS011;73671;43.220;0.064;2024-01-30T09:28:17;26.88;;;13.85;;
83690;SDS011;73671;43.220;0.064;2024-01-30T09:30:42;26.02;;;11.20;;
83690;SDS011;73671;43.220;0.064;2024-01-30T09:33:08;19.52;;;10.40;;
83690;SDS011;73671;43.220;0.064;2024-01-30T09:35:33;22.20;;;10.55;;
83690;SDS011;73671;43.220;0.064;2024-01-30T09:37:59;20.90;;;10.02;;
83690;SDS011;73671;43.220;0.064;2024-01-30T09:40:25;20.10;;;9.85;;
83690;SDS011;73671;43.220;0.064;2024-01-30T09:42:50;15.25;;;8.73;;
83690;SDS011;73671;43.220;0.064;2024-01-30T09:45:19;16.55;;;9.35;;
83690;SDS011;73671;43.220;0.064;2024-01-30T09:47:48;15.93;;;9.75;;
83690;SDS011;73671;43.220;0.064;2024-01-30T09:50:14;19.40;;;10.35;;
83690;SDS011;73671;43.220;0.064;2024-01-30T09:52:40;17.20;;;8.93;;
83690;SDS011;73671;43.220;0.064;2024-01-30T09:55:06;20.10;;;9.60;;
83690;SDS011;73671;43.220;0.064;2024-01-30T09:57:32;13.98;;;8.73;;
83690;SDS011;73671;43.220;0.064;2024-01-30T09:59:59;16.90;;;9.30;;
83690;SDS011;73671;43.220;0.064;2024-01-30T10:02:24;15.15;;;8.60;;
83690;SDS011;73671;43.220;0.064;2024-01-30T10:04:50;17.27;;;8.90;;
83690;SDS011;73671;43.220;0.064;2024-01-30T10:07:17;22.67;;;9.43;;
83690;SDS011;73671;43.220;0.064;2024-01-30T10:09:43;16.83;;;8.55;;
83690;SDS011;73671;43.220;0.064;2024-01-30T10:12:09;15.82;;;9.05;;
83690;SDS011;73671;43.220;0.064;2024-01-30T10:14:37;19.50;;;8.50;;
83690;SDS011;73671;43.220;0.064;2024-01-30T10:17:10;13.90;;;7.50;;
83690;SDS011;73671;43.220;0.064;2024-01-30T10:19:40;19.23;;;8.07;;
83690;SDS011;73671;43.220;0.064;2024-01-30T10:22:06;17.58;;;7.20;;
83690;SDS011;73671;43.220;0.064;2024-01-30T10:24:35;17.08;;;7.50;;
83690;SDS011;73671;43.220;0.064;2024-01-30T10:27:01;17.90;;;10.27;;
83690;SDS011;73671;43.220;0.064;2024-01-30T10:29:27;18.23;;;9.82;;
83690;SDS011;73671;43.220;0.064;2024-01-30T10:32:03;13.82;;;8.10;;
83690;SDS011;73671;43.220;0.064;2024-01-30T10:34:29;13.73;;;8.10;;
83690;SDS011;73671;43.220;0.064;2024-01-30T10:36:59;12.02;;;7.63;;
83690;SDS011;73671;43.220;0.064;2024-01-30T10:39:31;16.67;;;7.53;;
83690;SDS011;73671;43.220;0.064;2024-01-30T10:42:02;17.00;;;8.43;;
83690;SDS011;73671;43.220;0.064;2024-01-30T10:44:30;16.77;;;7.35;;
83690;SDS011;73671;43.220;0.064;2024-01-30T10:47:06;14.52;;;7.85;;
83690;SDS011;73671;43.220;0.064;2024-01-30T10:49:36;18.90;;;8.02;;
83690;SDS011;73671;43.220;0.064;2024-01-30T10:52:03;18.70;;;7.00;;
83690;SDS011;73671;43.220;0.064;2024-01-30T10:54:30;13.25;;;6.47;;
83690;SDS011;73671;43.220;0.064;2024-01-30T10:56:56;10.77;;;6.18;;
83690;SDS011;73671;43.220;0.064;2024-01-30T10:59:26;10.35;;;5.13;;
83690;SDS011;73671;43.220;0.064;2024-01-30T11:01:53;12.20;;;5.10;;
83690;SDS011;73671;43.220;0.064;2024-01-30T11:04:18;13.15;;;4.20;;
83690;SDS011;73671;43.220;0.064;2024-01-30T11:06:44;8.38;;;4.18;;
83690;SDS011;73671;43.220;0.064;2024-01-30T11:09:12;8.05;;;3.72;;
83690;SDS011;73671;43.220;0.064;2024-01-30T11:11:50;6.78;;;4.28;;
83690;SDS011;73671;43.220;0.064;2024-01-30T11:14:22;11.05;;;3.70;;
83690;SDS011;73671;43.220;0.064;2024-01-30T11:16:49;15.55;;;4.00;;
83690;SDS011;73671;43.220;0.064;2024-01-30T11:19:14;7.45;;;3.25;;
83690;SDS011;73671;43.220;0.064;2024-01-30T11:21:41;6.15;;;3.50;;
83690;SDS011;73671;43.220;0.064;2024-01-30T11:24:07;9.75;;;3.38;;
83690;SDS011;73671;43.220;0.064;2024-01-30T11:26:32;6.32;;;3.40;;
83690;SDS011;73671;43.220;0.064;2024-01-30T11:28:58;10.85;;;3.70;;
83690;SDS011;73671;43.220;0.064;2024-01-30T11:31:23;6.40;;;2.97;;
83690;SDS011;73671;43.220;0.064;2024-01-30T11:33:52;8.98;;;3.65;;
83690;SDS011;73671;43.220;0.064;2024-01-30T11:36:18;8.00;;;3.03;;
83690;SDS011;73671;43.220;0.064;2024-01-30T11:38:49;10.13;;;3.53;;
83690;SDS011;73671;43.220;0.064;2024-01-30T11:41:14;6.15;;;3.47;;
83690;SDS011;73671;43.220;0.064;2024-01-30T11:43:40;6.05;;;3.35;;
83690;SDS011;73671;43.220;0.064;2024-01-30T11:46:06;7.55;;;2.97;;
83690;SDS011;73671;43.220;0.064;2024-01-30T11:48:32;6.60;;;3.50;;
83690;SDS011;73671;43.220;0.064;2024-01-30T11:50:57;7.30;;;3.55;;
83690;SDS011;73671;43.220;0.064;2024-01-30T11:53:23;12.07;;;4.03;;
83690;SDS011;73671;43.220;0.064;2024-01-30T11:55:51;9.45;;;3.35;;
83690;SDS011;73671;43.220;0.064;2024-01-30T11:58:17;10.50;;;3.50;;
83690;SDS011;73671;43.220;0.064;2024-01-30T12:00:52;13.85;;;4.07;;
83690;SDS011;73671;43.220;0.064;2024-01-30T12:03:18;13.73;;;3.78;;
83690;SDS011;73671;43.220;0.064;2024-01-30T12:05:43;7.85;;;3.50;;
83690;SDS011;73671;43.220;0.064;2024-01-30T12:08:14;7.68;;;3.45;;
83690;SDS011;73671;43.220;0.064;2024-01-30T12:10:40;7.80;;;3.65;;
83690;SDS011;73671;43.220;0.064;2024-01-30T12:13:06;6.50;;;3.38;;
83690;SDS011;73671;43.220;0.064;2024-01-30T12:15:31;7.90;;;3.70;;
83690;SDS011;73671;43.220;0.064;2024-01-30T12:18:04;6.32;;;3.58;;
83690;SDS011;73671;43.220;0.064;2024-01-30T12:20:30;13.00;;;3.83;;
83690;SDS011;73671;43.220;0.064;2024-01-30T12:22:56;12.82;;;4.03;;
83690;SDS011;73671;43.220;0.064;2024-01-30T12:25:21;8.50;;;3.33;;
83690;SDS011;73671;43.220;0.064;2024-01-30T12:27:48;10.02;;;3.80;;
83690;SDS011;73671;43.220;0.064;2024-01-30T12:30:15;10.13;;;3.65;;
83690;SDS011;73671;43.220;0.064;2024-01-30T12:32:42;6.70;;;3.60;;
83690;SDS011;73671;43.220;0.064;2024-01-30T12:35:12;10.77;;;3.70;;
83690;SDS011;73671;43.220;0.064;2024-01-30T12:37:39;7.45;;;3.33;;
83690;SDS011;73671;43.220;0.064;2024-01-30T12:40:05;6.70;;;3.25;;
83690;SDS011;73671;43.220;0.064;2024-01-30T12:42:32;11.88;;;3.80;;
83690;SDS011;73671;43.220;0.064;2024-01-30T12:44:58;6.38;;;3.38;;
83690;SDS011;73671;43.220;0.064;2024-01-30T12:47:26;9.57;;;3.38;;
83690;SDS011;73671;43.220;0.064;2024-01-30T12:49:51;7.72;;;3.70;;
83690;SDS011;73671;43.220;0.064;2024-01-30T12:52:20;5.65;;;3.28;;
83690;SDS011;73671;43.220;0.064;2024-01-30T12:54:46;11.15;;;3.40;;
83690;SDS011;73671;43.220;0.064;2024-01-30T12:57:12;6.88;;;3.20;;
83690;SDS011;73671;43.220;0.064;2024-01-30T12:59:37;10.93;;;4.05;;
83690;SDS011;73671;43.220;0.064;2024-01-30T13:02:04;8.50;;;3.20;;
83690;SDS011;73671;43.220;0.064;2024-01-30T13:04:29;5.75;;;3.05;;
83690;SDS011;73671;43.220;0.064;2024-01-30T13:06:55;10.25;;;3.80;;
83690;SDS011;73671;43.220;0.064;2024-01-30T13:09:20;9.80;;;3.60;;
83690;SDS011;73671;43.220;0.064;2024-01-30T13:11:46;8.45;;;3.15;;
83690;SDS011;73671;43.220;0.064;2024-01-30T13:14:11;9.02;;;3.28;;
83690;SDS011;73671;43.220;0.064;2024-01-30T13:16:37;9.52;;;3.72;;
83690;SDS011;73671;43.220;0.064;2024-01-30T13:19:02;12.23;;;4.22;;
83690;SDS011;73671;43.220;0.064;2024-01-30T13:21:28;12.25;;;4.22;;
83690;SDS011;73671;43.220;0.064;2024-01-30T13:23:54;6.10;;;3.97;;
83690;SDS011;73671;43.220;0.064;2024-01-30T13:26:22;6.65;;;3.83;;
83690;SDS011;73671;43.220;0.064;2024-01-30T13:28:48;8.93;;;4.32;;
83690;SDS011;73671;43.220;0.064;2024-01-30T13:31:14;9.98;;;4.30;;
83690;SDS011;73671;43.220;0.064;2024-01-30T13:33:40;7.13;;;3.80;;
83690;SDS011;73671;43.220;0.064;2024-01-30T13:36:06;11.43;;;3.78;;
83690;SDS011;73671;43.220;0.064;2024-01-30T13:38:33;8.40;;;3.78;;
83690;SDS011;73671;43.220;0.064;2024-01-30T13:40:59;6.80;;;3.58;;
83690;SDS011;73671;43.220;0.064;2024-01-30T13:43:25;6.85;;;3.78;;
83690;SDS011;73671;43.220;0.064;2024-01-30T13:45:50;9.95;;;3.13;;
83690;SDS011;73671;43.220;0.064;2024-01-30T13:48:16;9.90;;;3.58;;
83690;SDS011;73671;43.220;0.064;2024-01-30T13:50:41;7.18;;;3.60;;
83690;SDS011;73671;43.220;0.064;2024-01-30T13:53:07;10.73;;;3.80;;
83690;SDS011;73671;43.220;0.064;2024-01-30T13:55:33;10.00;;;3.78;;
83690;SDS011;73671;43.220;0.064;2024-01-30T13:57:58;8.75;;;3.53;;
83690;SDS011;73671;43.220;0.064;2024-01-30T14:00:24;8.43;;;3.60;;
83690;SDS011;73671;43.220;0.064;2024-01-30T14:02:51;8.43;;;4.50;;
83690;SDS011;73671;43.220;0.064;2024-01-30T14:05:16;8.13;;;4.03;;
83690;SDS011;73671;43.220;0.064;2024-01-30T14:07:42;8.85;;;4.00;;
83690;SDS011;73671;43.220;0.064;2024-01-30T14:10:09;9.75;;;3.80;;
83690;SDS011;73671;43.220;0.064;2024-01-30T14:12:36;7.97;;;3.35;;
83690;SDS011;73671;43.220;0.064;2024-01-30T14:15:01;7.47;;;3.35;;
83690;SDS011;73671;43.220;0.064;2024-01-30T14:17:27;7.68;;;3.10;;
83690;SDS011;73671;43.220;0.064;2024-01-30T14:19:52;7.45;;;3.40;;
83690;SDS011;73671;43.220;0.064;2024-01-30T14:22:18;7.93;;;3.40;;